Myakka City, Florida
Current Conditions -  °F | °C
As of 2:53 AM on Friday 31 Oct 2014 (Local Time) from KSRQ Reporting Station
Clear Clear  
Wind Chill: 71°   Ceiling: Unl
Heat Index: 71°   Visibility: 10mi
Dew Point: 68°   Wind: 5mph
Humidity: 90%   Direction: 20°NNE
Pressure: 29.85"   Gusts: NA
Location:  27.35°N, 82.16°W
Report Text: KSRQ 310653Z 02004KT 10SM CLR 22/20 A2985 RMK AO2 SLP106 T02170200
Loading
Personal Weather Stations






























Interactive Weather Map
Tropical Storm Tracking
New forecast layout! Learn more

10-Day Weather Forecast

Advertisements
Track Severe Weather on mobile